Akeley, Minnesota
Current Conditions -  °F | °C
As of 7:15 AM on Monday 22 Dec 2014 (Local Time) from KY49 Reporting Station
Drizzle Drizzle  
Wind Chill:   Ceiling: 200
Heat Index:   Visibility: 2.5mi
Dew Point:   Wind: 3mph
Humidity: 99%   Direction: 120°ESE
Pressure: 29.57"   Gusts: NA
Location:  47°N, 94.73°W
Report Text: KY49 221315Z AUTO 12003KT 2 1/2SM -DZ OVC002 01/01 A2957 RMK AO2 T00080007
Loading
Personal Weather Stations






























Interactive Weather Map New forecast layout! Learn more

10-Day Weather Forecast

Advertisements
Track Severe Weather on mobile